Time;durP1;ratioP1;P1;durP2;ratioP2;P2;SDS_P1;SDS_P2;PMS_P1;PMS_P2;Temp;Humidity;BMP_temperature;BMP_pressure;BME280_temperature;BME280_humidity;BME280_pressure;Samples;Min_cycle;Max_cycle;Signal;HPM_P1;HPM_P2
2021/11/11 00:00:47;;;;;;;3.28;2.92;;;;;;;;;;5076624;28;20221;-83
2021/11/11 00:03:15;;;;;;;2.80;2.38;;;;;;;;;;5079831;28;20189;-84
2021/11/11 00:05:44;;;;;;;2.20;2.10;;;;;;;;;;5079726;28;20552;-83
2021/11/11 00:08:12;;;;;;;2.13;1.98;;;;;;;;;;5079783;28;20205;-83
2021/11/11 00:10:41;;;;;;;2.10;1.98;;;;;;;;;;5079540;28;20213;-83
2021/11/11 00:13:08;;;;;;;3.15;2.03;;;;;;;;;;5079855;28;20556;-83
2021/11/11 00:15:36;;;;;;;3.25;2.60;;;;;;;;;;5079978;28;20192;-83
2021/11/11 00:18:03;;;;;;;3.22;2.55;;;;;;;;;;5079104;28;20213;-83
2021/11/11 00:20:31;;;;;;;3.35;3.05;;;;;;;;;;5079009;28;20590;-83
2021/11/11 00:23:00;;;;;;;2.78;2.38;;;;;;;;;;5078772;28;20197;-84
2021/11/11 00:25:29;;;;;;;2.95;2.40;;;;;;;;;;5078446;28;20562;-84
2021/11/11 00:27:58;;;;;;;3.50;2.00;;;;;;;;;;5078792;28;20196;-84
2021/11/11 00:30:25;;;;;;;3.25;2.97;;;;;;;;;;5078367;28;20233;-84
2021/11/11 00:32:53;;;;;;;3.25;2.95;;;;;;;;;;5078074;28;20185;-83
2021/11/11 00:35:24;;;;;;;6.03;4.32;;;;;;;;;;5078827;28;20200;-83
2021/11/11 00:37:53;;;;;;;3.97;3.63;;;;;;;;;;5078361;28;20221;-84
2021/11/11 00:40:22;;;;;;;4.40;3.97;;;;;;;;;;5078730;28;20221;-83
2021/11/11 00:42:50;;;;;;;3.50;3.20;;;;;;;;;;5078634;28;20201;-84
2021/11/11 00:45:18;;;;;;;4.28;3.08;;;;;;;;;;5078690;28;20197;-83
2021/11/11 00:47:46;;;;;;;3.72;3.42;;;;;;;;;;5078543;28;20178;-84
2021/11/11 00:50:14;;;;;;;3.13;2.65;;;;;;;;;;5078278;28;20229;-83
2021/11/11 00:52:42;;;;;;;5.75;4.13;;;;;;;;;;5078257;28;20197;-84
2021/11/11 00:55:10;;;;;;;3.55;2.90;;;;;;;;;;5078773;28;20205;-83
2021/11/11 00:57:39;;;;;;;2.33;2.13;;;;;;;;;;5078650;28;20224;-84
2021/11/11 01:00:10;;;;;;;2.10;1.90;;;;;;;;;;5077911;28;20247;-83
2021/11/11 01:02:38;;;;;;;1.67;1.58;;;;;;;;;;5077969;28;20185;-84
2021/11/11 01:05:07;;;;;;;1.50;1.40;;;;;;;;;;5078676;28;20193;-83
2021/11/11 01:07:36;;;;;;;1.50;1.40;;;;;;;;;;5077943;28;20181;-84
2021/11/11 01:10:05;;;;;;;1.50;1.40;;;;;;;;;;5077787;28;20598;-84
2021/11/11 01:12:33;;;;;;;1.73;1.63;;;;;;;;;;5078110;28;20254;-83
2021/11/11 01:15:02;;;;;;;1.80;1.70;;;;;;;;;;5078083;28;20185;-83
2021/11/11 01:17:30;;;;;;;1.88;1.77;;;;;;;;;;5078011;28;20209;-83
2021/11/11 01:19:57;;;;;;;4.13;2.85;;;;;;;;;;5076593;28;20706;-82
2021/11/11 01:22:25;;;;;;;3.28;2.40;;;;;;;;;;5078255;28;20635;-83
2021/11/11 01:24:53;;;;;;;2.85;2.50;;;;;;;;;;5077172;28;20205;-83
2021/11/11 01:27:21;;;;;;;3.35;2.65;;;;;;;;;;5077866;28;20196;-84
2021/11/11 01:29:48;;;;;;;2.47;2.28;;;;;;;;;;5077075;28;20717;-83
2021/11/11 01:32:17;;;;;;;3.88;2.45;;;;;;;;;;5077649;28;20216;-83
2021/11/11 01:34:45;;;;;;;3.92;2.53;;;;;;;;;;5078063;28;20185;-83
2021/11/11 01:37:12;;;;;;;1.60;1.50;;;;;;;;;;5077608;28;20193;-83
2021/11/11 01:39:40;;;;;;;1.80;1.70;;;;;;;;;;5077587;28;20236;-83
2021/11/11 01:42:07;;;;;;;1.77;1.67;;;;;;;;;;5077712;28;20197;-83
2021/11/11 01:44:35;;;;;;;2.30;1.92;;;;;;;;;;5077557;28;20635;-83
2021/11/11 01:47:02;;;;;;;2.22;2.13;;;;;;;;;;5077038;28;20192;-83
2021/11/11 01:49:31;;;;;;;1.88;1.77;;;;;;;;;;5077367;28;20227;-83
2021/11/11 01:51:59;;;;;;;2.20;2.10;;;;;;;;;;5076863;28;20653;-83
2021/11/11 01:54:26;;;;;;;3.38;2.97;;;;;;;;;;5077074;28;20185;-83
2021/11/11 01:56:54;;;;;;;3.38;3.08;;;;;;;;;;5076605;28;20227;-83
2021/11/11 01:59:22;;;;;;;2.28;2.13;;;;;;;;;;5076938;28;20229;-83
2021/11/11 02:01:49;;;;;;;2.10;1.90;;;;;;;;;;5076746;28;20594;-83
2021/11/11 02:04:17;;;;;;;2.25;2.05;;;;;;;;;;5076952;28;20185;-83
2021/11/11 02:06:46;;;;;;;1.90;1.67;;;;;;;;;;5076445;28;20215;-83
2021/11/11 02:09:14;;;;;;;1.98;1.88;;;;;;;;;;5077151;28;20532;-83
2021/11/11 02:11:42;;;;;;;2.75;2.00;;;;;;;;;;5076601;28;20189;-83
2021/11/11 02:14:10;;;;;;;1.92;1.77;;;;;;;;;;5076798;28;20185;-82
2021/11/11 02:16:38;;;;;;;1.50;1.40;;;;;;;;;;5077406;28;20559;-82
2021/11/11 02:19:08;;;;;;;3.30;2.72;;;;;;;;;;5077219;28;20213;-83
2021/11/11 02:21:38;;;;;;;3.28;2.97;;;;;;;;;;5076725;28;20197;-82
2021/11/11 02:24:07;;;;;;;2.75;2.55;;;;;;;;;;5076164;28;20280;-83
2021/11/11 02:26:34;;;;;;;2.92;2.63;;;;;;;;;;5076858;28;20642;-83
2021/11/11 02:29:02;;;;;;;3.78;3.30;;;;;;;;;;5077306;28;20193;-82
2021/11/11 02:31:29;;;;;;;3.63;3.33;;;;;;;;;;5077048;28;20189;-83
2021/11/11 02:33:58;;;;;;;4.00;3.42;;;;;;;;;;5077520;28;20185;-84
2021/11/11 02:36:26;;;;;;;4.63;4.03;;;;;;;;;;5077225;28;20204;-83
2021/11/11 02:38:54;;;;;;;4.10;3.47;;;;;;;;;;5076823;28;20216;-84
2021/11/11 02:41:22;;;;;;;3.75;3.38;;;;;;;;;;5077143;28;20208;-83
2021/11/11 02:43:50;;;;;;;3.58;3.25;;;;;;;;;;5077164;28;20211;-84
2021/11/11 02:46:17;;;;;;;2.95;2.65;;;;;;;;;;5076663;28;20185;-84
2021/11/11 02:48:44;;;;;;;2.47;2.28;;;;;;;;;;5076202;28;20201;-84
2021/11/11 02:51:12;;;;;;;3.08;2.80;;;;;;;;;;5076499;28;20237;-84
2021/11/11 02:53:42;;;;;;;3.05;2.85;;;;;;;;;;5076565;28;20181;-83
2021/11/11 02:56:11;;;;;;;2.47;2.25;;;;;;;;;;5076627;28;20193;-83
2021/11/11 02:58:38;;;;;;;2.65;2.45;;;;;;;;;;5076431;28;20288;-83
2021/11/11 03:01:07;;;;;;;2.38;2.17;;;;;;;;;;5076884;28;20431;-83
2021/11/11 03:03:34;;;;;;;2.70;2.50;;;;;;;;;;5076394;28;20201;-83
2021/11/11 03:06:02;;;;;;;1.92;1.83;;;;;;;;;;5077064;28;20658;-83
2021/11/11 03:08:29;;;;;;;2.55;2.35;;;;;;;;;;5076364;28;20193;-83
2021/11/11 03:10:57;;;;;;;2.25;2.13;;;;;;;;;;5076082;28;20223;-83
2021/11/11 03:13:26;;;;;;;2.08;1.88;;;;;;;;;;5075813;28;20196;-84
2021/11/11 03:15:57;;;;;;;2.25;2.05;;;;;;;;;;5076245;28;20185;-83
2021/11/11 03:18:25;;;;;;;2.30;2.10;;;;;;;;;;5076018;28;20208;-83
2021/11/11 03:20:53;;;;;;;2.65;2.45;;;;;;;;;;5076456;28;20603;-82
2021/11/11 03:23:20;;;;;;;3.28;2.97;;;;;;;;;;5075488;28;20224;-84
2021/11/11 03:25:50;;;;;;;4.03;3.70;;;;;;;;;;5075826;28;20205;-84
2021/11/11 03:28:18;;;;;;;3.65;3.35;;;;;;;;;;5075766;28;20284;-83
2021/11/11 03:30:47;;;;;;;3.25;2.95;;;;;;;;;;5098117;22;20243;-87
2021/11/11 03:33:16;;;;;;;3.53;3.22;;;;;;;;;;5074721;28;20191;-87
2021/11/11 03:35:44;;;;;;;4.15;3.75;;;;;;;;;;5075911;28;20196;-87
2021/11/11 03:38:13;;;;;;;2.25;2.10;;;;;;;;;;5079047;28;20551;-87
2021/11/11 03:40:44;;;;;;;3.45;3.25;;;;;;;;;;5090802;28;20216;-87
2021/11/11 03:43:14;;;;;;;2.80;2.60;;;;;;;;;;5099770;28;20192;-87
2021/11/11 03:45:42;;;;;;;3.00;2.80;;;;;;;;;;5100493;28;20192;-87
2021/11/11 03:48:11;;;;;;;2.75;2.55;;;;;;;;;;5099259;28;20208;-86
2021/11/11 03:50:40;;;;;;;2.53;2.33;;;;;;;;;;5099701;28;20227;-87
2021/11/11 03:53:08;;;;;;;3.10;2.90;;;;;;;;;;5099708;28;20176;-87
2021/11/11 03:55:37;;;;;;;2.55;2.42;;;;;;;;;;5099485;28;20200;-87
2021/11/11 03:58:04;;;;;;;2.30;2.10;;;;;;;;;;5098398;28;20196;-87
2021/11/11 04:00:32;;;;;;;2.75;2.55;;;;;;;;;;5097931;28;20231;-87
2021/11/11 04:03:01;;;;;;;1.60;1.50;;;;;;;;;;5098366;28;20205;-86
2021/11/11 04:05:36;;;;;;;2.17;2.03;;;;;;;;;;5098617;28;20626;-87
2021/11/11 04:08:06;;;;;;;1.80;1.70;;;;;;;;;;5098384;28;20207;-88
2021/11/11 04:10:34;;;;;;;2.13;1.95;;;;;;;;;;5097920;28;20230;-87
2021/11/11 04:13:04;;;;;;;2.08;1.98;;;;;;;;;;5079140;28;20181;-88
2021/11/11 04:15:34;;;;;;;2.78;2.38;;;;;;;;;;5080062;28;20189;-86
2021/11/11 04:18:02;;;;;;;1.80;1.70;;;;;;;;;;5079101;28;20185;-86
2021/11/11 04:20:31;;;;;;;2.10;2.00;;;;;;;;;;5079813;28;20229;-86
2021/11/11 04:23:00;;;;;;;1.92;1.83;;;;;;;;;;5097648;28;20192;-86
2021/11/11 04:25:34;;;;;;;2.20;2.08;;;;;;;;;;5099727;28;20228;-87
2021/11/11 04:28:03;;;;;;;1.80;1.70;;;;;;;;;;5099867;28;20200;-87
2021/11/11 04:30:33;;;;;;;2.55;2.35;;;;;;;;;;5099800;28;20232;-86
2021/11/11 04:33:04;;;;;;;2.38;2.22;;;;;;;;;;5099498;28;20662;-87
2021/11/11 04:35:33;;;;;;;1.90;1.80;;;;;;;;;;5099610;28;20177;-87
2021/11/11 04:38:08;;;;;;;2.63;2.42;;;;;;;;;;5100044;28;20628;-87
2021/11/11 04:43:47;;;;;;;2.88;2.55;;;;;;;;;;5036958;28;20691;-87
2021/11/11 04:49:30;;;;;;;2.50;2.28;;;;;;;;;;5096139;28;20196;-85
2021/11/11 04:52:21;;;;;;;2.55;2.33;;;;;;;;;;5103491;28;20219;-86
2021/11/11 05:03:11;;;;;;;2.30;2.20;;;;;;;;;;5063725;28;20192;-86
2021/11/11 05:05:40;;;;;;;1.58;1.48;;;;;;;;;;5097889;28;20188;-85
2021/11/11 05:08:08;;;;;;;1.30;1.30;;;;;;;;;;5097200;28;20199;-86
2021/11/11 05:10:38;;;;;;;1.02;1.02;;;;;;;;;;5097237;28;20213;-85
2021/11/11 05:13:06;;;;;;;1.63;1.52;;;;;;;;;;5097604;28;20197;-84
2021/11/11 05:15:35;;;;;;;2.70;2.47;;;;;;;;;;5097475;28;20184;-86
2021/11/11 05:18:02;;;;;;;2.55;2.35;;;;;;;;;;5097717;28;20181;-85
2021/11/11 05:20:31;;;;;;;2.70;2.53;;;;;;;;;;5097043;28;20235;-85
2021/11/11 05:22:59;;;;;;;2.40;2.20;;;;;;;;;;5097419;28;20195;-85
2021/11/11 05:25:26;;;;;;;1.77;1.67;;;;;;;;;;5097862;28;20203;-85
2021/11/11 05:27:55;;;;;;;1.85;1.75;;;;;;;;;;5097066;28;20661;-85
2021/11/11 05:30:23;;;;;;;1.55;1.45;;;;;;;;;;5095884;28;20238;-85
2021/11/11 05:32:52;;;;;;;1.80;1.70;;;;;;;;;;5095148;28;20199;-85
2021/11/11 05:35:20;;;;;;;1.60;1.50;;;;;;;;;;5095503;28;20203;-85
2021/11/11 05:37:48;;;;;;;2.00;1.83;;;;;;;;;;5095202;28;20195;-85
2021/11/11 05:40:20;;;;;;;1.60;1.50;;;;;;;;;;5095405;28;20303;-84
2021/11/11 05:42:49;;;;;;;2.20;2.00;;;;;;;;;;5095760;28;20181;-86
2021/11/11 05:45:19;;;;;;;1.70;1.60;;;;;;;;;;5096132;28;20189;-85
2021/11/11 05:47:49;;;;;;;1.92;1.83;;;;;;;;;;5095488;28;20222;-86
2021/11/11 05:50:20;;;;;;;2.42;2.33;;;;;;;;;;5094553;28;20227;-84
2021/11/11 05:52:48;;;;;;;1.98;1.88;;;;;;;;;;5095295;28;20189;-85
2021/11/11 05:55:15;;;;;;;2.95;2.00;;;;;;;;;;5094606;28;20286;-85
2021/11/11 05:57:44;;;;;;;2.15;1.60;;;;;;;;;;5094462;28;20555;-85
2021/11/11 06:00:16;;;;;;;2.30;2.20;;;;;;;;;;5092936;28;20600;-84
2021/11/11 06:02:47;;;;;;;2.22;2.13;;;;;;;;;;5095007;28;20618;-84
2021/11/11 06:05:18;;;;;;;2.72;2.53;;;;;;;;;;5094587;28;20189;-85
2021/11/11 06:07:46;;;;;;;2.40;2.20;;;;;;;;;;5094535;28;20729;-85
2021/11/11 06:10:15;;;;;;;2.10;2.00;;;;;;;;;;5094508;28;20239;-84
2021/11/11 06:12:43;;;;;;;2.45;2.25;;;;;;;;;;5094332;28;20187;-85
2021/11/11 06:15:12;;;;;;;2.75;2.55;;;;;;;;;;5094353;28;20210;-84
2021/11/11 06:17:39;;;;;;;2.88;2.67;;;;;;;;;;5094552;28;20554;-85
2021/11/11 06:20:19;;;;;;;1.40;1.40;;;;;;;;;;5093655;28;20220;-85
2021/11/11 06:22:52;;;;;;;2.00;1.90;;;;;;;;;;5074511;28;20204;-84
2021/11/11 06:25:22;;;;;;;2.00;1.90;;;;;;;;;;5075026;28;20643;-86
2021/11/11 06:27:50;;;;;;;1.60;1.50;;;;;;;;;;5089340;28;20195;-84
2021/11/11 06:30:18;;;;;;;2.33;2.22;;;;;;;;;;5095042;28;20303;-86
2021/11/11 06:32:45;;;;;;;1.70;1.60;;;;;;;;;;5095805;28;20192;-86
2021/11/11 06:35:15;;;;;;;1.65;1.55;;;;;;;;;;5095769;28;20214;-83
2021/11/11 06:37:44;;;;;;;1.60;1.50;;;;;;;;;;5096323;28;20226;-84
2021/11/11 06:40:12;;;;;;;1.48;1.48;;;;;;;;;;5094634;28;20223;-84
2021/11/11 06:42:40;;;;;;;1.90;1.80;;;;;;;;;;5096282;28;20205;-84
2021/11/11 06:45:11;;;;;;;1.50;1.40;;;;;;;;;;5094041;28;20287;-84
2021/11/11 06:47:40;;;;;;;2.10;2.00;;;;;;;;;;5094706;28;20196;-83
2021/11/11 06:50:09;;;;;;;1.33;1.33;;;;;;;;;;5094774;28;20216;-82
2021/11/11 06:52:39;;;;;;;2.60;2.40;;;;;;;;;;5093881;28;20191;-83
2021/11/11 06:55:08;;;;;;;1.52;1.42;;;;;;;;;;5094460;28;20192;-85
2021/11/11 06:57:36;;;;;;;1.58;1.48;;;;;;;;;;5094307;28;20200;-85
2021/11/11 07:00:08;;;;;;;2.35;2.15;;;;;;;;;;5095066;28;20216;-85
2021/11/11 07:02:36;;;;;;;1.83;1.73;;;;;;;;;;5094678;28;20216;-82
2021/11/11 07:05:11;;;;;;;1.95;1.75;;;;;;;;;;5107215;28;20193;-84
2021/11/11 07:07:41;;;;;;;1.50;1.40;;;;;;;;;;5095187;28;20260;-85
2021/11/11 07:10:10;;;;;;;1.50;1.40;;;;;;;;;;5092910;28;20223;-84
2021/11/11 07:12:39;;;;;;;1.80;1.70;;;;;;;;;;5093336;28;20207;-82
2021/11/11 07:15:08;;;;;;;1.77;1.67;;;;;;;;;;5095187;28;20199;-83
2021/11/11 07:17:39;;;;;;;1.75;1.65;;;;;;;;;;5095083;28;20188;-82
2021/11/11 07:20:11;;;;;;;1.73;1.63;;;;;;;;;;5095452;28;20299;-84
2021/11/11 07:22:42;;;;;;;2.35;2.15;;;;;;;;;;5095793;28;20329;-85
2021/11/11 07:25:11;;;;;;;2.38;2.17;;;;;;;;;;5094931;28;20195;-84
2021/11/11 07:27:39;;;;;;;1.73;1.52;;;;;;;;;;5093769;28;20192;-84
2021/11/11 07:30:10;;;;;;;1.60;1.50;;;;;;;;;;5095345;28;20228;-85
2021/11/11 07:32:38;;;;;;;1.70;1.60;;;;;;;;;;5096665;28;20204;-83
2021/11/11 07:35:09;;;;;;;1.35;1.27;;;;;;;;;;5095578;28;20570;-85
2021/11/11 07:37:37;;;;;;;2.15;2.05;;;;;;;;;;5094515;28;20825;-83
2021/11/11 07:40:08;;;;;;;2.38;2.20;;;;;;;;;;5096131;28;20235;-84
2021/11/11 07:42:37;;;;;;;2.03;1.77;;;;;;;;;;5095764;28;20204;-83
2021/11/11 07:45:06;;;;;;;1.73;1.63;;;;;;;;;;5096717;28;20658;-83
2021/11/11 07:47:36;;;;;;;1.83;1.73;;;;;;;;;;5096324;28;20224;-83
2021/11/11 07:50:08;;;;;;;2.55;2.35;;;;;;;;;;5096682;28;20216;-84
2021/11/11 07:52:36;;;;;;;1.85;1.75;;;;;;;;;;5096180;28;20207;-83
2021/11/11 07:55:06;;;;;;;2.95;2.58;;;;;;;;;;5096305;28;20216;-84
2021/11/11 07:57:35;;;;;;;2.67;2.47;;;;;;;;;;5095733;28;20569;-84
2021/11/11 08:00:05;;;;;;;1.90;1.80;;;;;;;;;;5096144;28;20598;-83
2021/11/11 08:02:35;;;;;;;1.70;1.60;;;;;;;;;;5095688;28;20207;-85
2021/11/11 08:05:03;;;;;;;1.83;1.73;;;;;;;;;;5096608;28;20193;-83
2021/11/11 08:07:30;;;;;;;2.25;2.10;;;;;;;;;;5096384;28;20251;-85
2021/11/11 08:09:59;;;;;;;1.80;1.70;;;;;;;;;;5096543;28;20590;-83
2021/11/11 08:12:30;;;;;;;2.15;2.05;;;;;;;;;;5096023;28;20192;-83
2021/11/11 08:14:58;;;;;;;3.25;2.78;;;;;;;;;;5096576;28;20189;-84
2021/11/11 08:17:27;;;;;;;2.00;1.80;;;;;;;;;;5095787;28;20655;-85
2021/11/11 08:19:55;;;;;;;2.25;2.10;;;;;;;;;;5096484;28;20217;-85
2021/11/11 08:22:23;;;;;;;2.65;2.45;;;;;;;;;;5096850;28;20212;-83
2021/11/11 08:24:52;;;;;;;2.80;2.60;;;;;;;;;;5097706;28;20200;-84
2021/11/11 08:27:22;;;;;;;1.98;1.88;;;;;;;;;;5097771;28;20196;-82
2021/11/11 08:29:51;;;;;;;2.58;2.38;;;;;;;;;;5096721;28;20228;-83
2021/11/11 08:32:20;;;;;;;4.63;2.95;;;;;;;;;;5097183;28;20189;-83
2021/11/11 08:34:49;;;;;;;2.80;2.60;;;;;;;;;;5097542;28;20193;-83
2021/11/11 08:37:17;;;;;;;2.22;2.13;;;;;;;;;;5098732;28;20203;-83
2021/11/11 08:39:44;;;;;;;3.20;3.00;;;;;;;;;;5098241;28;20227;-83
2021/11/11 08:42:14;;;;;;;2.40;2.20;;;;;;;;;;5097488;28;20224;-83
2021/11/11 08:44:44;;;;;;;2.05;1.95;;;;;;;;;;5097710;28;20523;-83
2021/11/11 08:47:13;;;;;;;2.95;2.75;;;;;;;;;;5097065;28;20204;-83
2021/11/11 08:49:41;;;;;;;2.60;2.42;;;;;;;;;;5098188;28;20560;-84
2021/11/11 08:52:16;;;;;;;2.10;2.00;;;;;;;;;;5078967;28;20215;-83
2021/11/11 08:54:45;;;;;;;2.08;1.95;;;;;;;;;;5090466;28;20192;-84
2021/11/11 08:57:14;;;;;;;3.30;3.03;;;;;;;;;;5098336;28;20192;-83
2021/11/11 08:59:41;;;;;;;2.97;2.70;;;;;;;;;;5090409;28;20188;-83
2021/11/11 09:02:12;;;;;;;2.97;2.75;;;;;;;;;;5097587;28;20195;-84
2021/11/11 09:04:39;;;;;;;3.55;3.25;;;;;;;;;;5098044;28;20569;-83
2021/11/11 09:07:07;;;;;;;2.85;2.65;;;;;;;;;;5097519;28;20192;-81
2021/11/11 09:09:35;;;;;;;2.92;2.70;;;;;;;;;;5098133;28;20203;-82
2021/11/11 09:12:03;;;;;;;4.15;2.72;;;;;;;;;;5097436;28;20203;-83
2021/11/11 09:14:31;;;;;;;2.53;2.33;;;;;;;;;;5097967;28;20203;-82
2021/11/11 09:16:59;;;;;;;2.95;2.75;;;;;;;;;;5097086;28;20184;-83
2021/11/11 09:19:29;;;;;;;1.90;1.80;;;;;;;;;;5089370;28;20634;-81
2021/11/11 09:21:56;;;;;;;2.65;2.45;;;;;;;;;;5098115;28;20208;-82
2021/11/11 09:24:24;;;;;;;2.30;2.10;;;;;;;;;;5097807;28;20204;-83
2021/11/11 09:26:51;;;;;;;3.28;2.97;;;;;;;;;;5096511;28;20673;-82
2021/11/11 09:29:19;;;;;;;2.58;2.38;;;;;;;;;;5095196;28;20204;-84
2021/11/11 09:31:46;;;;;;;2.45;2.25;;;;;;;;;;5095973;28;20240;-84
2021/11/11 09:34:13;;;;;;;2.67;2.47;;;;;;;;;;5095987;28;20187;-87
2021/11/11 09:36:42;;;;;;;2.22;2.08;;;;;;;;;;5095764;28;20204;-86
2021/11/11 09:39:10;;;;;;;2.00;1.90;;;;;;;;;;5095809;28;20204;-84
2021/11/11 09:41:41;;;;;;;3.33;3.13;;;;;;;;;;5095894;28;20241;-86
2021/11/11 09:44:08;;;;;;;4.97;4.47;;;;;;;;;;5095755;28;20224;-86
2021/11/11 09:46:36;;;;;;;4.30;3.90;;;;;;;;;;5095106;28;20195;-83
2021/11/11 09:49:06;;;;;;;4.65;4.25;;;;;;;;;;5094275;28;20200;-85
2021/11/11 09:51:33;;;;;;;5.00;4.53;;;;;;;;;;5094579;28;20220;-85
2021/11/11 09:54:17;;;;;;;4.60;4.20;;;;;;;;;;5094710;28;20201;-84
2021/11/11 09:59:35;;;;;;;3.70;3.35;;;;;;;;;;5095000;28;20203;-86
2021/11/11 10:02:05;;;;;;;2.95;2.75;;;;;;;;;;5094955;28;20261;-85
2021/11/11 10:04:33;;;;;;;2.95;2.75;;;;;;;;;;5094743;28;20235;-86
2021/11/11 10:07:01;;;;;;;2.75;2.55;;;;;;;;;;5094929;28;20239;-88
2021/11/11 10:09:31;;;;;;;3.35;3.05;;;;;;;;;;5094250;28;20202;-88
2021/11/11 10:12:03;;;;;;;4.30;3.97;;;;;;;;;;5093623;28;20682;-87
2021/11/11 10:14:33;;;;;;;6.30;5.75;;;;;;;;;;5094331;28;20216;-86
2021/11/11 10:17:05;;;;;;;7.20;6.22;;;;;;;;;;5094218;28;20290;-86
2021/11/11 10:19:36;;;;;;;5.07;4.57;;;;;;;;;;5096542;28;20529;-87
2021/11/11 10:22:08;;;;;;;5.53;5.03;;;;;;;;;;5096735;28;20218;-86
2021/11/11 10:24:44;;;;;;;4.75;4.03;;;;;;;;;;5096240;28;20220;-88
2021/11/11 10:27:24;;;;;;;5.38;3.72;;;;;;;;;;5096349;28;20235;-87
2021/11/11 10:29:55;;;;;;;4.40;4.00;;;;;;;;;;5096444;28;20288;-86
2021/11/11 10:32:28;;;;;;;5.90;5.35;;;;;;;;;;5097410;28;20200;-87
2021/11/11 10:34:58;;;;;;;4.70;4.00;;;;;;;;;;5096387;28;20207;-89
2021/11/11 10:37:32;;;;;;;5.00;4.53;;;;;;;;;;5096929;28;20202;-87
2021/11/11 10:40:08;;;;;;;6.88;6.18;;;;;;;;;;5096175;28;20232;-89
2021/11/11 10:42:38;;;;;;;6.03;5.03;;;;;;;;;;5096170;28;20206;-87
2021/11/11 10:45:09;;;;;;;4.68;4.18;;;;;;;;;;5095371;28;20230;-87
2021/11/11 10:47:38;;;;;;;5.22;4.80;;;;;;;;;;5095395;28;20211;-88
2021/11/11 10:50:12;;;;;;;6.00;5.40;;;;;;;;;;5098127;28;20716;-86
2021/11/11 10:52:43;;;;;;;5.00;4.60;;;;;;;;;;5098027;28;20218;-86
2021/11/11 10:55:21;;;;;;;7.43;6.40;;;;;;;;;;5098506;28;20196;-88
2021/11/11 10:57:54;;;;;;;8.27;7.00;;;;;;;;;;5095638;28;20257;-84
2021/11/11 11:00:35;;;;;;;8.60;6.20;;;;;;;;;;5093711;28;20219;-87
2021/11/11 11:03:07;;;;;;;5.93;5.32;;;;;;;;;;5093882;28;20214;-87
2021/11/11 11:05:49;;;;;;;7.57;6.88;;;;;;;;;;5093633;28;20306;-87
2021/11/11 11:08:19;;;;;;;6.80;6.07;;;;;;;;;;5093450;28;20211;-87
2021/11/11 11:10:52;;;;;;;7.05;6.35;;;;;;;;;;5093237;28;20240;-87
2021/11/11 11:13:22;;;;;;;8.63;7.32;;;;;;;;;;5093202;28;20204;-88
2021/11/11 11:15:57;;;;;;;8.02;7.00;;;;;;;;;;5093104;28;20196;-86
2021/11/11 11:18:30;;;;;;;6.55;5.72;;;;;;;;;;5093151;28;20195;-86
2021/11/11 11:21:01;;;;;;;9.32;8.20;;;;;;;;;;5093428;28;20220;-86
2021/11/11 11:23:35;;;;;;;6.57;5.88;;;;;;;;;;5092605;28;20688;-87
2021/11/11 11:26:10;;;;;;;8.48;7.57;;;;;;;;;;5093240;28;20207;-85
2021/11/11 11:29:09;;;;;;;7.55;6.70;;;;;;;;;;5093139;28;20700;-86
2021/11/11 11:31:46;;;;;;;10.57;7.50;;;;;;;;;;5093013;28;20224;-86
2021/11/11 11:34:18;;;;;;;12.20;10.38;;;;;;;;;;5093189;28;20237;-84
2021/11/11 11:36:51;;;;;;;15.82;11.20;;;;;;;;;;5093094;28;20204;-86
2021/11/11 11:39:30;;;;;;;10.70;8.95;;;;;;;;;;5093244;28;20678;-85
2021/11/11 11:42:02;;;;;;;8.77;7.88;;;;;;;;;;5093524;28;20628;-87
2021/11/11 11:44:39;;;;;;;12.55;10.10;;;;;;;;;;5093619;28;20667;-86
2021/11/11 11:47:14;;;;;;;12.23;8.95;;;;;;;;;;5093424;28;20200;-86
2021/11/11 11:49:44;;;;;;;10.52;9.43;;;;;;;;;;5092918;28;20223;-86
2021/11/11 11:52:13;;;;;;;12.25;10.23;;;;;;;;;;5092796;28;20619;-87
2021/11/11 11:54:50;;;;;;;13.40;10.73;;;;;;;;;;5092873;28;20204;-86
2021/11/11 11:57:29;;;;;;;14.63;11.88;;;;;;;;;;5093539;28;20210;-86
2021/11/11 12:00:00;;;;;;;13.23;10.05;;;;;;;;;;5096926;28;20216;-85
2021/11/11 12:02:40;;;;;;;15.85;12.40;;;;;;;;;;5096276;28;20200;-85
2021/11/11 12:05:21;;;;;;;13.82;12.02;;;;;;;;;;5099159;28;20258;-86
2021/11/11 12:07:58;;;;;;;12.93;11.43;;;;;;;;;;5097158;28;20239;-84
2021/11/11 12:10:35;;;;;;;14.32;12.63;;;;;;;;;;5097883;28;20215;-84
2021/11/11 12:38:42;;;;;;;11.00;9.00;;;;;;;;;;5095908;28;20203;-84
2021/11/11 12:41:12;;;;;;;10.10;8.60;;;;;;;;;;5095675;28;20250;-86
2021/11/11 12:43:40;;;;;;;12.38;9.60;;;;;;;;;;5095812;28;20210;-84
2021/11/11 12:46:40;;;;;;;14.45;10.23;;;;;;;;;;5095494;28;20720;-85
2021/11/11 12:49:28;;;;;;;10.95;8.00;;;;;;;;;;5096303;28;20232;-84
2021/11/11 12:52:25;;;;;;;8.18;7.30;;;;;;;;;;5095660;28;20196;-85
2021/11/11 12:55:09;;;;;;;15.20;11.52;;;;;;;;;;5095720;28;20208;-84
2021/11/11 12:57:57;;;;;;;14.63;11.63;;;;;;;;;;5095225;28;20203;-84
2021/11/11 13:00:37;;;;;;;15.30;10.95;;;;;;;;;;5095741;28;20220;-84
2021/11/11 13:03:07;;;;;;;13.60;11.40;;;;;;;;;;5095349;28;20188;-84
2021/11/11 13:05:52;;;;;;;15.43;12.15;;;;;;;;;;5095712;28;20269;-86
2021/11/11 13:08:21;;;;;;;13.00;10.27;;;;;;;;;;5093970;28;20231;-85
2021/11/11 13:10:58;;;;;;;10.30;8.23;;;;;;;;;;5095360;28;20503;-85
2021/11/11 13:13:26;;;;;;;12.75;9.85;;;;;;;;;;5095433;28;20578;-87
2021/11/11 13:16:00;;;;;;;14.25;10.70;;;;;;;;;;5094898;28;20674;-85
2021/11/11 13:18:44;;;;;;;14.93;11.68;;;;;;;;;;5094733;28;20574;-86
2021/11/11 13:21:14;;;;;;;12.45;9.30;;;;;;;;;;5094744;28;20222;-86
2021/11/11 13:23:48;;;;;;;11.27;8.95;;;;;;;;;;5094414;28;20204;-86
2021/11/11 13:54:03;;;;;;;14.27;11.40;;;;;;;;;;5095733;28;20282;-86
2021/11/11 14:01:04;;;;;;;17.20;14.02;;;;;;;;;;5095190;28;20640;-86
2021/11/11 14:04:02;;;;;;;12.38;9.32;;;;;;;;;;5095477;28;20253;-85
2021/11/11 15:20:06;;;;;;;12.25;10.75;;;;;;;;;;5095535;28;20223;-84
2021/11/11 16:24:35;;;;;;;5.68;5.07;;;;;;;;;;5101251;28;20192;-86
2021/11/11 16:27:06;;;;;;;7.22;6.55;;;;;;;;;;5102661;28;20216;-85
2021/11/11 16:29:34;;;;;;;8.10;7.28;;;;;;;;;;5102975;28;20658;-84
2021/11/11 16:32:01;;;;;;;9.60;8.02;;;;;;;;;;5103466;28;20200;-84
2021/11/11 16:34:30;;;;;;;8.45;7.25;;;;;;;;;;5101655;28;20200;-84
2021/11/11 16:36:59;;;;;;;9.57;8.32;;;;;;;;;;5096156;28;20575;-84
2021/11/11 16:39:27;;;;;;;8.32;7.13;;;;;;;;;;5098425;28;20204;-86
2021/11/11 16:41:56;;;;;;;6.07;5.55;;;;;;;;;;5096394;28;20226;-84
2021/11/11 16:44:24;;;;;;;5.15;4.65;;;;;;;;;;5095549;28;20200;-84
2021/11/11 16:46:52;;;;;;;8.00;7.07;;;;;;;;;;5096158;28;20224;-85
2021/11/11 16:49:20;;;;;;;9.13;8.23;;;;;;;;;;5096416;28;20211;-83
2021/11/11 16:51:48;;;;;;;10.57;8.82;;;;;;;;;;5095827;28;20204;-84
2021/11/11 16:54:15;;;;;;;12.35;10.13;;;;;;;;;;5095876;28;20692;-84
2021/11/11 16:56:43;;;;;;;14.73;11.57;;;;;;;;;;5095749;28;20197;-85
2021/11/11 16:59:12;;;;;;;16.88;12.25;;;;;;;;;;5095814;28;20607;-84
2021/11/11 17:01:39;;;;;;;9.05;8.15;;;;;;;;;;5095790;28;20223;-85
2021/11/11 17:04:06;;;;;;;9.73;8.55;;;;;;;;;;5095805;28;20200;-84
2021/11/11 17:06:35;;;;;;;6.88;6.28;;;;;;;;;;5095631;28;20624;-84
2021/11/11 17:09:03;;;;;;;7.57;6.53;;;;;;;;;;5095252;28;20204;-83
2021/11/11 17:11:31;;;;;;;7.00;5.88;;;;;;;;;;5095771;28;20220;-86
2021/11/11 17:13:58;;;;;;;7.95;6.28;;;;;;;;;;5096525;28;20206;-84
2021/11/11 17:16:28;;;;;;;8.63;7.32;;;;;;;;;;5095279;28;20193;-85
2021/11/11 17:18:57;;;;;;;5.55;4.90;;;;;;;;;;5094941;28;20192;-85
2021/11/11 17:21:25;;;;;;;6.07;5.50;;;;;;;;;;5094900;28;20228;-86
2021/11/11 17:23:55;;;;;;;6.10;5.35;;;;;;;;;;5095510;28;20287;-84
2021/11/11 17:29:06;;;;;;;6.65;5.95;;;;;;;;;;5094688;28;20646;-84
2021/11/11 17:31:35;;;;;;;8.73;7.90;;;;;;;;;;5094777;28;20228;-84
2021/11/11 17:34:03;;;;;;;8.38;6.55;;;;;;;;;;5095291;28;20208;-86
2021/11/11 17:36:30;;;;;;;5.22;4.70;;;;;;;;;;5095376;28;20783;-83
2021/11/11 17:38:58;;;;;;;5.85;5.25;;;;;;;;;;5095493;28;20208;-84
2021/11/11 17:41:25;;;;;;;5.68;5.18;;;;;;;;;;5095560;28;20235;-85
2021/11/11 17:43:53;;;;;;;9.27;8.15;;;;;;;;;;5095948;28;20211;-85
2021/11/11 17:46:24;;;;;;;8.13;7.30;;;;;;;;;;5094689;28;20279;-85
2021/11/11 17:48:57;;;;;;;11.40;9.45;;;;;;;;;;5095977;28;20204;-84
2021/11/11 17:51:37;;;;;;;12.15;9.75;;;;;;;;;;5096433;28;20657;-83
2021/11/11 17:54:11;;;;;;;14.50;11.05;;;;;;;;;;5095468;28;20650;-85
2021/11/11 17:56:42;;;;;;;10.85;9.68;;;;;;;;;;5094632;28;20209;-85
2021/11/11 17:59:09;;;;;;;11.02;9.43;;;;;;;;;;5095417;28;20252;-82
2021/11/11 18:01:37;;;;;;;8.98;8.15;;;;;;;;;;5094560;28;20724;-85
2021/11/11 18:04:06;;;;;;;9.80;8.48;;;;;;;;;;5094656;28;20181;-85
2021/11/11 18:06:37;;;;;;;5.70;5.20;;;;;;;;;;5094437;28;20180;-85
2021/11/11 18:09:11;;;;;;;7.80;6.25;;;;;;;;;;5095145;28;20188;-85
2021/11/11 18:11:41;;;;;;;9.23;8.30;;;;;;;;;;5095135;28;20263;-86
2021/11/11 18:14:14;;;;;;;8.48;6.57;;;;;;;;;;5094923;28;20193;-86
2021/11/11 18:16:46;;;;;;;8.50;7.60;;;;;;;;;;5095198;28;20589;-86
2021/11/11 18:19:14;;;;;;;12.77;8.70;;;;;;;;;;5095359;28;20562;-86
2021/11/11 18:21:42;;;;;;;10.50;8.88;;;;;;;;;;5095035;28;20216;-84
2021/11/11 18:24:11;;;;;;;9.43;8.52;;;;;;;;;;5095100;28;20207;-85
2021/11/11 18:26:39;;;;;;;8.68;7.72;;;;;;;;;;5095914;28;20188;-84
2021/11/11 18:29:18;;;;;;;9.25;7.18;;;;;;;;;;5095899;28;20184;-86
2021/11/11 18:31:57;;;;;;;8.27;6.55;;;;;;;;;;5094963;28;20239;-86